createdAt,value
2018-07-08T00:00:11.020Z,33.90
2018-07-08T00:02:40.028Z,33.90
2018-07-08T00:05:08.935Z,33.60
2018-07-08T00:07:37.877Z,33.60
2018-07-08T00:10:06.887Z,33.60
2018-07-08T00:12:35.817Z,33.50
2018-07-08T00:15:04.930Z,34.80
2018-07-08T00:17:33.926Z,34.00
2018-07-08T00:20:02.886Z,34.10
2018-07-08T00:22:31.853Z,34.10
2018-07-08T00:25:01.041Z,34.40
2018-07-08T00:27:30.104Z,34.50
2018-07-08T00:29:59.049Z,35.30
2018-07-08T00:32:27.982Z,35.30
2018-07-08T00:34:56.912Z,35.20
2018-07-08T00:37:26.170Z,35.40
2018-07-08T00:39:55.248Z,35.50
2018-07-08T00:42:24.191Z,35.40
2018-07-08T00:44:53.293Z,35.50
2018-07-08T00:47:22.229Z,35.30
2018-07-08T00:49:51.172Z,35.50
2018-07-08T00:52:20.154Z,35.70
2018-07-08T00:54:49.076Z,35.90
2018-07-08T00:57:18.001Z,35.90
2018-07-08T00:59:46.913Z,35.70
2018-07-08T01:02:15.868Z,35.70
2018-07-08T01:04:44.792Z,35.50
2018-07-08T01:07:13.798Z,35.30
2018-07-08T01:09:42.709Z,35.20
2018-07-08T01:12:11.653Z,34.40
2018-07-08T01:14:40.593Z,34.70
2018-07-08T01:17:09.541Z,35.00
2018-07-08T01:19:38.641Z,34.90
2018-07-08T01:22:07.550Z,34.60
2018-07-08T01:24:36.481Z,34.50
2018-07-08T01:27:05.558Z,34.90
2018-07-08T01:29:34.504Z,34.90
2018-07-08T01:32:03.420Z,35.00
2018-07-08T01:34:32.341Z,34.90
2018-07-08T01:37:01.294Z,34.90
2018-07-08T01:39:30.321Z,35.10
2018-07-08T01:41:59.251Z,35.20
2018-07-08T01:44:28.184Z,35.70
2018-07-08T01:49:25.736Z,34.30
2018-07-08T01:51:54.679Z,34.50
2018-07-08T01:54:23.750Z,33.60
2018-07-08T01:56:52.787Z,35.30
2018-07-08T01:59:21.772Z,35.80
2018-07-08T02:01:50.726Z,36.00
2018-07-08T02:04:19.673Z,35.90
2018-07-08T02:06:48.692Z,35.90
2018-07-08T02:09:17.682Z,35.20
2018-07-08T02:11:46.641Z,35.30
2018-07-08T02:14:15.655Z,35.70
2018-07-08T02:16:44.583Z,35.50
2018-07-08T02:19:13.548Z,35.60
2018-07-08T02:21:42.553Z,36.50
2018-07-08T02:24:11.562Z,36.40
2018-07-08T02:26:40.561Z,36.90
2018-07-08T02:29:09.549Z,36.80
2018-07-08T02:31:38.541Z,36.30
2018-07-08T02:34:07.512Z,36.40
2018-07-08T02:39:06.239Z,37.60
2018-07-08T02:41:35.321Z,37.80
2018-07-08T02:44:04.426Z,37.60
2018-07-08T02:46:33.455Z,37.70
2018-07-08T02:49:02.677Z,37.90
2018-07-08T02:51:32.311Z,38.00
2018-07-08T02:54:01.233Z,38.00
2018-07-08T02:56:30.188Z,37.90
2018-07-08T02:58:59.089Z,39.70
2018-07-08T03:01:28.061Z,39.90
2018-07-08T03:03:56.981Z,39.60
2018-07-08T03:06:25.878Z,39.70
2018-07-08T03:08:54.743Z,40.50
2018-07-08T03:11:23.672Z,41.10
2018-07-08T03:13:52.754Z,41.60
2018-07-08T03:16:21.616Z,41.30
2018-07-08T03:18:50.556Z,41.60
2018-07-08T03:21:19.458Z,40.70
2018-07-08T03:23:48.423Z,41.60
2018-07-08T03:26:17.364Z,42.50
2018-07-08T03:28:46.336Z,42.70
2018-07-08T03:31:15.269Z,43.50
2018-07-08T03:33:44.282Z,42.50
2018-07-08T03:36:13.186Z,42.30
2018-07-08T03:38:42.154Z,41.60
2018-07-08T03:41:11.157Z,42.70
2018-07-08T03:43:40.157Z,43.00
2018-07-08T03:46:09.092Z,43.30
2018-07-08T03:48:38.361Z,43.30
2018-07-08T03:51:07.600Z,43.10
2018-07-08T03:53:36.553Z,43.00
2018-07-08T03:56:05.749Z,42.40
2018-07-08T03:58:34.644Z,41.50
2018-07-08T04:01:03.583Z,41.40
2018-07-08T04:03:32.493Z,41.80
2018-07-08T04:06:01.442Z,41.90
2018-07-08T04:08:30.403Z,41.70
2018-07-08T04:10:59.386Z,41.00
2018-07-08T04:13:28.341Z,39.80
2018-07-08T04:15:57.314Z,40.30
2018-07-08T04:18:26.276Z,39.80
2018-07-08T04:20:55.205Z,39.90
2018-07-08T04:23:24.198Z,40.10
2018-07-08T04:25:53.092Z,40.40
2018-07-08T04:28:22.090Z,40.00
2018-07-08T04:30:50.995Z,41.40
2018-07-08T04:33:19.904Z,40.40
2018-07-08T04:35:48.826Z,40.70
2018-07-08T04:38:17.822Z,40.20
2018-07-08T04:40:46.774Z,40.30
2018-07-08T04:43:15.717Z,39.80
2018-07-08T04:45:44.670Z,40.20
2018-07-08T04:48:13.608Z,39.90
2018-07-08T04:50:42.552Z,40.20
2018-07-08T04:53:11.458Z,39.60
2018-07-08T04:55:40.380Z,39.10
2018-07-08T04:58:09.280Z,39.50
2018-07-08T05:00:38.209Z,38.40
2018-07-08T05:03:07.155Z,38.50
2018-07-08T05:05:36.165Z,39.20
2018-07-08T05:08:05.118Z,38.50
2018-07-08T05:10:34.067Z,37.70
2018-07-08T05:13:02.972Z,37.10
2018-07-08T05:15:31.980Z,36.60
2018-07-08T05:18:00.908Z,34.40
2018-07-08T05:20:29.881Z,33.20
2018-07-08T05:22:58.828Z,32.20
2018-07-08T05:25:27.794Z,29.20
2018-07-08T05:27:56.802Z,27.70
2018-07-08T05:30:25.800Z,26.10
2018-07-08T05:32:54.833Z,25.50
2018-07-08T05:35:23.761Z,25.00
2018-07-08T05:37:52.804Z,24.20
2018-07-08T05:40:21.719Z,24.10
2018-07-08T05:42:50.722Z,23.20
2018-07-08T05:45:19.715Z,22.40
2018-07-08T05:47:48.721Z,22.10
2018-07-08T05:50:17.768Z,20.90
2018-07-08T05:52:46.697Z,19.90
2018-07-08T05:55:15.682Z,19.00
2018-07-08T05:57:44.646Z,18.10
2018-07-08T06:00:13.704Z,17.00
2018-07-08T06:02:42.671Z,16.10
2018-07-08T06:05:11.628Z,15.60
2018-07-08T06:07:40.556Z,14.60
2018-07-08T06:10:09.590Z,13.60
2018-07-08T06:12:38.555Z,12.80
2018-07-08T06:15:07.454Z,12.50
2018-07-08T06:17:36.424Z,11.10
2018-07-08T06:20:08.042Z,9.70
2018-07-08T06:22:37.028Z,8.60
2018-07-08T06:25:06.129Z,9.10
2018-07-08T06:27:35.444Z,10.30
2018-07-08T06:30:05.049Z,12.30
2018-07-08T06:32:34.073Z,15.00
2018-07-08T06:35:02.985Z,17.20
2018-07-08T06:40:00.436Z,20.70
2018-07-08T06:42:29.484Z,21.60
2018-07-08T06:44:58.419Z,22.10
2018-07-08T06:47:27.340Z,21.80
2018-07-08T06:49:56.400Z,21.10
2018-07-08T06:52:25.432Z,19.50
2018-07-08T06:54:54.456Z,17.30
2018-07-08T06:57:23.456Z,16.60
2018-07-08T06:59:52.409Z,16.50
2018-07-08T07:02:21.352Z,17.40
2018-07-08T07:04:50.333Z,17.50
2018-07-08T07:07:19.272Z,16.00
2018-07-08T07:09:48.232Z,15.30
2018-07-08T07:12:17.264Z,15.30
2018-07-08T07:14:46.219Z,15.90
2018-07-08T07:17:15.216Z,15.60
2018-07-08T07:19:44.186Z,16.00
2018-07-08T07:22:13.189Z,17.50
2018-07-08T07:24:42.156Z,18.40
2018-07-08T07:27:11.097Z,18.60
2018-07-08T07:29:40.123Z,18.90
2018-07-08T07:32:09.101Z,18.50
2018-07-08T07:34:38.253Z,18.30
2018-07-08T07:37:07.567Z,16.50
2018-07-08T07:42:05.013Z,8.60
2018-07-08T07:44:33.997Z,7.10
2018-07-08T07:47:03.106Z,6.50
2018-07-08T07:52:00.751Z,9.20
2018-07-08T07:54:30.716Z,11.70
2018-07-08T07:56:59.763Z,12.20
2018-07-08T07:59:28.741Z,10.80
2018-07-08T08:01:58.066Z,9.60
2018-07-08T08:06:55.515Z,10.20
2018-07-08T08:09:24.529Z,11.00
2018-07-08T08:11:53.543Z,10.30
2018-07-08T08:14:22.888Z,9.40
2018-07-08T08:16:51.938Z,8.30
2018-07-08T08:19:20.834Z,8.50
2018-07-08T08:21:49.772Z,7.60
2018-07-08T08:24:18.687Z,6.30
2018-07-08T08:26:47.739Z,7.10
2018-07-08T08:29:16.579Z,7.40
2018-07-08T08:31:46.817Z,6.20
2018-07-08T08:35:20.066Z,4.90
2018-07-08T08:37:54.077Z,4.10
2018-07-08T08:40:28.159Z,3.80
2018-07-08T08:42:57.160Z,4.30
2018-07-08T08:45:27.556Z,4.80
2018-07-08T08:47:56.503Z,4.30
2018-07-08T08:50:25.499Z,4.90
2018-07-08T08:55:22.980Z,5.40
2018-07-08T08:57:51.966Z,4.60
2018-07-08T09:00:21.295Z,4.70
2018-07-08T09:02:50.466Z,4.70
2018-07-08T09:05:19.349Z,4.10
2018-07-08T09:07:48.200Z,3.50
2018-07-08T09:10:17.127Z,3.10
2018-07-08T09:12:46.174Z,2.90
2018-07-08T09:15:15.189Z,5.70
2018-07-08T09:17:44.176Z,8.60
2018-07-08T09:20:13.505Z,7.10
2018-07-08T09:22:42.701Z,7.60
2018-07-08T09:25:11.723Z,6.10
2018-07-08T09:27:40.883Z,7.50
2018-07-08T09:30:10.383Z,7.90
2018-07-08T09:32:39.634Z,7.90
2018-07-08T09:35:08.560Z,7.80
2018-07-08T09:37:37.583Z,8.20
2018-07-08T09:40:06.528Z,10.20
2018-07-08T09:42:35.631Z,12.70
2018-07-08T09:45:04.678Z,15.20
2018-07-08T09:47:33.642Z,16.50
2018-07-08T09:50:03.970Z,16.30
2018-07-08T09:52:33.213Z,16.40
2018-07-08T09:55:02.516Z,16.60
2018-07-08T09:57:31.657Z,16.40
2018-07-08T10:00:00.655Z,16.80
2018-07-08T10:02:29.593Z,16.80
2018-07-08T10:04:58.598Z,16.10
2018-07-08T10:07:27.576Z,15.90
2018-07-08T10:09:56.637Z,16.30
2018-07-08T10:12:25.770Z,17.80
2018-07-08T10:14:54.747Z,19.10
2018-07-08T10:17:24.470Z,19.10
2018-07-08T10:19:53.658Z,18.60
2018-07-08T10:22:22.724Z,19.10
2018-07-08T10:24:51.645Z,19.00
2018-07-08T10:27:36.489Z,19.00
2018-07-08T10:30:07.410Z,18.10
2018-07-08T10:32:36.594Z,18.10
2018-07-08T10:35:11.816Z,18.00
2018-07-08T10:37:40.893Z,18.40
2018-07-08T10:42:53.400Z,19.30
2018-07-08T10:45:22.341Z,18.90
2018-07-08T10:47:51.350Z,19.00
2018-07-08T10:50:20.325Z,18.00
2018-07-08T10:52:49.319Z,19.20
2018-07-08T10:55:18.368Z,18.80
2018-07-08T10:57:47.321Z,18.10
2018-07-08T11:00:16.533Z,17.90
2018-07-08T11:02:46.121Z,18.20
2018-07-08T11:05:15.085Z,18.40
2018-07-08T11:07:44.047Z,18.20
2018-07-08T11:10:13.067Z,18.00
2018-07-08T11:12:41.986Z,18.20
2018-07-08T11:15:10.974Z,18.20
2018-07-08T11:20:08.633Z,18.40
2018-07-08T11:22:37.593Z,18.80
2018-07-08T11:25:06.702Z,19.70
2018-07-08T11:27:35.827Z,19.90
2018-07-08T11:30:05.302Z,20.50
2018-07-08T11:32:34.461Z,20.60
2018-07-08T11:35:03.417Z,20.50
2018-07-08T11:37:32.375Z,20.90
2018-07-08T11:40:01.293Z,21.00
2018-07-08T11:42:30.257Z,21.20
2018-07-08T11:44:59.183Z,22.00
2018-07-08T11:47:28.163Z,22.20
2018-07-08T11:49:57.176Z,23.00
2018-07-08T11:52:26.270Z,23.50
2018-07-08T11:54:55.261Z,23.40
2018-07-08T11:57:24.309Z,22.40
2018-07-08T11:59:53.292Z,22.20
2018-07-08T12:02:22.236Z,21.40
2018-07-08T12:04:51.312Z,21.10
2018-07-08T12:07:20.270Z,20.30
2018-07-08T12:09:49.240Z,20.20
2018-07-08T12:12:18.177Z,20.60
2018-07-08T12:14:47.264Z,20.90
2018-07-08T12:17:16.167Z,20.90
2018-07-08T12:19:45.225Z,21.70
2018-07-08T12:22:14.262Z,21.30
2018-07-08T12:24:43.253Z,21.00
2018-07-08T12:27:12.201Z,21.10
2018-07-08T12:29:41.125Z,20.70
2018-07-08T12:32:10.092Z,19.90
2018-07-08T12:34:39.074Z,19.40
2018-07-08T12:39:36.752Z,20.50
2018-07-08T12:42:05.792Z,20.70
2018-07-08T12:44:34.833Z,21.10
2018-07-08T12:47:03.825Z,21.50
2018-07-08T12:49:32.748Z,21.90
2018-07-08T12:52:01.862Z,22.00
2018-07-08T12:54:31.033Z,21.50
2018-07-08T12:57:00.390Z,21.40
2018-07-08T12:59:29.580Z,21.40
2018-07-08T13:01:59.587Z,21.80
2018-07-08T13:04:28.556Z,21.20
2018-07-08T13:06:57.829Z,22.30
2018-07-08T13:09:27.197Z,22.80
2018-07-08T13:11:56.174Z,22.70
2018-07-08T13:14:25.244Z,22.60
2018-07-08T13:16:54.299Z,21.50
2018-07-08T13:19:24.388Z,21.70
2018-07-08T13:21:53.398Z,22.10
2018-07-08T13:24:22.402Z,21.70
2018-07-08T13:26:51.488Z,21.80
2018-07-08T13:29:20.480Z,22.20
2018-07-08T13:31:49.366Z,22.30
2018-07-08T13:34:18.372Z,22.40
2018-07-08T13:36:47.417Z,22.60
2018-07-08T13:39:16.276Z,22.90
2018-07-08T13:41:45.308Z,23.40
2018-07-08T13:44:14.238Z,23.20
2018-07-08T13:46:43.189Z,23.90
2018-07-08T13:49:12.227Z,23.90
2018-07-08T13:51:41.184Z,24.40
2018-07-08T13:54:10.101Z,24.70
2018-07-08T13:56:39.345Z,24.50
2018-07-08T13:59:09.214Z,24.70
2018-07-08T14:01:38.392Z,23.90
2018-07-08T14:04:07.343Z,23.90
2018-07-08T14:06:37.270Z,23.90
2018-07-08T14:09:07.406Z,24.00
2018-07-08T14:11:36.584Z,24.60
2018-07-08T14:14:05.657Z,24.80
2018-07-08T14:16:35.481Z,24.10
2018-07-08T14:19:04.454Z,24.10
2018-07-08T14:21:33.409Z,24.00
2018-07-08T14:24:02.724Z,24.30
2018-07-08T14:26:32.168Z,24.20
2018-07-08T14:29:01.211Z,23.90
2018-07-08T14:31:30.177Z,23.90
2018-07-08T14:33:59.366Z,23.80
2018-07-08T14:36:28.773Z,24.00
2018-07-08T14:38:57.740Z,23.80
2018-07-08T14:41:27.059Z,23.80
2018-07-08T14:43:55.952Z,23.80
2018-07-08T14:46:25.002Z,23.80
2018-07-08T14:48:53.949Z,23.80
2018-07-08T14:51:23.458Z,24.60
2018-07-08T14:53:52.783Z,25.20
2018-07-08T14:56:21.802Z,25.50
2018-07-08T14:58:52.037Z,25.40
2018-07-08T15:01:22.385Z,25.50
2018-07-08T15:03:51.465Z,25.10
2018-07-08T15:06:20.515Z,24.50
2018-07-08T15:08:49.435Z,23.90
2018-07-08T15:11:18.441Z,24.60
2018-07-08T15:13:47.578Z,25.10
2018-07-08T15:16:17.848Z,25.20
2018-07-08T15:18:46.854Z,25.30
2018-07-08T15:21:16.038Z,25.80
2018-07-08T15:23:44.989Z,25.50
2018-07-08T15:28:42.468Z,25.50
2018-07-08T15:31:11.537Z,24.20
2018-07-08T15:33:40.571Z,24.00
2018-07-08T15:36:09.750Z,24.50
2018-07-08T15:38:38.853Z,25.20
2018-07-08T15:41:07.927Z,24.90
2018-07-08T15:43:36.939Z,25.70
2018-07-08T15:46:06.813Z,26.00
2018-07-08T15:48:35.766Z,26.20
2018-07-08T15:51:04.785Z,26.40
2018-07-08T15:53:33.719Z,26.40
2018-07-08T15:56:02.700Z,26.40
2018-07-08T16:01:00.259Z,26.70
2018-07-08T16:03:29.145Z,27.40
2018-07-08T16:05:58.214Z,26.70
2018-07-08T16:08:27.299Z,26.70
2018-07-08T16:10:56.164Z,26.90
2018-07-08T16:13:25.160Z,26.80
2018-07-08T16:15:54.058Z,26.80
2018-07-08T16:18:23.042Z,26.90
2018-07-08T16:20:53.413Z,26.90
2018-07-08T16:23:22.424Z,26.90
2018-07-08T16:25:51.380Z,27.00
2018-07-08T16:28:20.352Z,26.00
2018-07-08T16:30:49.288Z,25.60
2018-07-08T16:33:18.260Z,25.70
2018-07-08T16:35:53.099Z,25.90
2018-07-08T16:38:22.162Z,25.30
2018-07-08T16:40:51.768Z,25.00
2018-07-08T16:43:20.682Z,25.90
2018-07-08T16:45:49.764Z,26.40
2018-07-08T16:48:18.640Z,25.60
2018-07-08T16:50:48.337Z,25.90
2018-07-08T16:53:17.290Z,26.40
2018-07-08T16:55:46.241Z,26.60
2018-07-08T17:00:43.753Z,26.90
2018-07-08T17:03:12.822Z,26.70
2018-07-08T17:05:41.917Z,27.00
2018-07-08T17:08:10.907Z,27.20
2018-07-08T17:10:40.827Z,26.80
2018-07-08T17:13:09.773Z,27.10
2018-07-08T17:15:38.649Z,27.30
2018-07-08T17:18:07.596Z,27.40
2018-07-08T17:20:36.534Z,27.10
2018-07-08T17:23:05.481Z,26.90
2018-07-08T17:25:34.415Z,27.00
2018-07-08T17:28:03.508Z,27.40
2018-07-08T17:30:33.509Z,27.70
2018-07-08T17:33:02.625Z,27.80
2018-07-08T17:35:31.548Z,27.80
2018-07-08T17:38:00.609Z,28.10
2018-07-08T17:40:29.604Z,28.10
2018-07-08T17:42:58.751Z,28.10
2018-07-08T17:45:27.664Z,28.30
2018-07-08T17:47:56.638Z,28.10
2018-07-08T17:50:25.539Z,28.20
2018-07-08T17:52:54.572Z,28.40
2018-07-08T17:55:23.478Z,28.80
2018-07-08T17:57:53.554Z,28.80
2018-07-08T18:00:22.858Z,29.10
2018-07-08T18:02:51.706Z,29.10
2018-07-08T18:05:20.637Z,29.40
2018-07-08T18:07:49.566Z,29.60
2018-07-08T18:10:18.837Z,29.80
2018-07-08T18:15:16.478Z,29.90
2018-07-08T18:17:45.673Z,30.00
2018-07-08T18:20:14.656Z,30.60
2018-07-08T18:22:43.579Z,29.90
2018-07-08T18:27:41.073Z,30.20
2018-07-08T18:30:09.965Z,30.40
2018-07-08T18:32:39.022Z,30.70
2018-07-08T18:35:07.940Z,30.90
2018-07-08T18:37:37.194Z,31.30
2018-07-08T18:40:06.129Z,31.70
2018-07-08T18:42:35.197Z,31.70
2018-07-08T18:45:04.482Z,32.10
2018-07-08T18:47:33.384Z,32.60
2018-07-08T18:50:02.354Z,33.00
2018-07-08T18:52:31.335Z,33.50
2018-07-08T18:55:00.406Z,33.50
2018-07-08T18:57:29.489Z,34.20
2018-07-08T18:59:59.706Z,34.70
2018-07-08T19:02:28.760Z,35.50
2018-07-08T19:04:57.959Z,35.90
2018-07-08T19:07:27.163Z,36.00
2018-07-08T19:09:56.112Z,36.70
2018-07-08T19:12:25.033Z,37.00
2018-07-08T19:14:55.344Z,37.50
2018-07-08T19:17:24.319Z,37.40
2018-07-08T19:19:53.301Z,37.90
2018-07-08T19:22:22.316Z,38.30
2018-07-08T19:24:52.144Z,39.00
2018-07-08T19:29:50.198Z,39.80
2018-07-08T19:32:19.153Z,40.20
2018-07-08T19:34:50.486Z,40.70
2018-07-08T19:37:19.384Z,41.30
2018-07-08T19:39:48.327Z,41.20
2018-07-08T19:42:17.272Z,41.90
2018-07-08T19:44:46.247Z,41.90
2018-07-08T19:47:15.257Z,42.60
2018-07-08T19:49:44.201Z,43.00
2018-07-08T19:52:13.085Z,44.00
2018-07-08T19:54:42.053Z,44.20
2018-07-08T19:57:10.939Z,44.70
2018-07-08T19:59:40.065Z,44.70
2018-07-08T20:02:11.337Z,44.90
2018-07-08T20:04:40.225Z,45.10
2018-07-08T20:07:09.872Z,45.10
2018-07-08T20:09:38.814Z,45.20
2018-07-08T20:12:09.105Z,46.60
2018-07-08T20:14:38.697Z,46.90
2018-07-08T20:17:07.770Z,47.40
2018-07-08T20:19:36.768Z,47.20
2018-07-08T20:22:05.909Z,47.20
2018-07-08T20:24:36.700Z,47.50
2018-07-08T20:27:06.387Z,47.00
2018-07-08T20:29:35.773Z,47.80
2018-07-08T20:32:04.752Z,48.60
2018-07-08T20:34:35.236Z,49.60
2018-07-08T20:37:04.377Z,50.20
2018-07-08T20:39:33.422Z,50.50
2018-07-08T20:42:02.474Z,50.40
2018-07-08T20:44:31.513Z,50.10
2018-07-08T20:47:00.580Z,50.60
2018-07-08T20:49:29.516Z,50.70
2018-07-08T20:51:59.280Z,51.80
2018-07-08T20:54:28.160Z,51.80
2018-07-08T20:56:57.254Z,52.00
2018-07-08T20:59:26.276Z,52.30
2018-07-08T21:04:38.400Z,52.10
2018-07-08T21:07:07.642Z,52.50
2018-07-08T21:09:37.829Z,51.60
2018-07-08T21:12:06.754Z,51.30
2018-07-08T21:14:35.651Z,50.50
2018-07-08T21:17:05.081Z,50.20
2018-07-08T21:22:03.420Z,49.70
2018-07-08T21:24:32.452Z,49.80
2018-07-08T21:27:01.367Z,50.40
2018-07-08T21:29:30.357Z,50.80
2018-07-08T21:31:59.279Z,51.70
2018-07-08T21:34:28.144Z,52.10
2018-07-08T21:36:57.156Z,53.00
2018-07-08T21:39:26.109Z,53.90
2018-07-08T21:41:55.081Z,54.20
2018-07-08T21:44:23.957Z,55.40
2018-07-08T21:46:53.039Z,56.00
2018-07-08T21:49:22.021Z,56.10
2018-07-08T21:51:51.019Z,56.60
2018-07-08T21:54:21.804Z,57.00
2018-07-08T21:59:34.036Z,56.80
2018-07-08T22:02:05.352Z,57.20
2018-07-08T22:04:38.248Z,57.40
2018-07-08T22:07:12.541Z,57.60
2018-07-08T22:09:41.470Z,57.20
2018-07-08T22:12:10.341Z,58.10
2018-07-08T22:14:39.488Z,58.30
2018-07-08T22:17:08.421Z,58.60
2018-07-08T22:19:38.134Z,58.50
2018-07-08T22:22:07.201Z,57.90
2018-07-08T22:24:36.112Z,58.00
2018-07-08T22:27:05.343Z,58.00
2018-07-08T22:29:34.827Z,58.00
2018-07-08T22:32:03.708Z,57.70
2018-07-08T22:34:32.589Z,58.70
2018-07-08T22:37:01.513Z,59.40
2018-07-08T22:39:30.457Z,60.20
2018-07-08T22:41:59.500Z,60.60
2018-07-08T22:44:28.355Z,61.10
2018-07-08T22:46:57.304Z,61.20
2018-07-08T22:49:26.356Z,61.80
2018-07-08T22:51:55.828Z,61.80
2018-07-08T22:54:24.717Z,61.60
2018-07-08T22:56:53.727Z,62.30
2018-07-08T22:59:22.632Z,62.10
2018-07-08T23:02:02.623Z,62.70
2018-07-08T23:04:31.530Z,63.90
2018-07-08T23:07:00.406Z,64.70
2018-07-08T23:09:29.393Z,65.60
2018-07-08T23:11:58.236Z,67.10
2018-07-08T23:14:27.253Z,66.60
2018-07-08T23:16:56.164Z,67.80
2018-07-08T23:19:25.045Z,68.50
2018-07-08T23:21:53.895Z,69.40
2018-07-08T23:24:22.816Z,70.30
2018-07-08T23:29:20.432Z,70.50
2018-07-08T23:31:49.481Z,71.30
2018-07-08T23:34:18.407Z,73.00
2018-07-08T23:36:47.307Z,73.60
2018-07-08T23:39:16.193Z,74.00
2018-07-08T23:41:45.109Z,74.00
2018-07-08T23:44:13.992Z,75.30
2018-07-08T23:46:42.853Z,76.50
2018-07-08T23:49:11.694Z,77.70
2018-07-08T23:51:40.629Z,78.30
2018-07-08T23:54:09.505Z,78.50
2018-07-08T23:56:38.549Z,80.70
2018-07-08T23:59:07.427Z,80.20
